Time;durP1;ratioP1;P1;durP2;ratioP2;P2;SDS_P1;SDS_P2;PMS_P1;PMS_P2;Temp;Humidity;BMP_temperature;BMP_pressure;BME280_temperature;BME280_humidity;BME280_pressure;Samples;Min_cycle;Max_cycle;Signal;HPM_P1;HPM_P2
2022/10/07 00:02:06;;;;;;;1.03;0.50;;;14.40;18.60;;;;;;5034372;28;20546;-74
2022/10/07 00:04:33;;;;;;;1.93;0.50;;;14.50;16.30;;;;;;5037238;28;20787;-74
2022/10/07 00:06:59;;;;;;;2.50;1.43;;;14.60;17.10;;;;;;5037037;28;20455;-74
2022/10/07 00:09:26;;;;;;;2.30;0.40;;;14.60;13.60;;;;;;5040541;28;20437;-74
2022/10/07 00:11:53;;;;;;;1.20;0.57;;;14.70;11.00;;;;;;5038114;28;20550;-74
2022/10/07 00:14:20;;;;;;;1.13;0.50;;;14.70;11.00;;;;;;5040150;28;20440;-73
2022/10/07 00:16:48;;;;;;;0.80;0.50;;;14.70;5.00;;;;;;5037224;28;20891;-74
2022/10/07 00:19:15;;;;;;;0.90;0.50;;;14.60;13.30;;;;;;5039448;28;20444;-74
2022/10/07 00:21:42;;;;;;;1.87;0.60;;;14.60;13.50;;;;;;5037948;28;20762;-74
2022/10/07 00:24:10;;;;;;;1.00;0.60;;;14.70;12.40;;;;;;5039788;28;20530;-74
2022/10/07 00:26:37;;;;;;;1.50;0.50;;;14.60;9.70;;;;;;5038348;28;20464;-74
2022/10/07 00:29:05;;;;;;;1.87;0.50;;;14.70;11.80;;;;;;5040394;28;20444;-72
2022/10/07 00:31:33;;;;;;;0.70;0.40;;;14.80;10.30;;;;;;5037254;28;20467;-72
2022/10/07 00:34:03;;;;;;;1.33;0.53;;;14.80;20.80;;;;;;5040036;28;20488;-74
2022/10/07 00:36:32;;;;;;;1.07;0.50;;;14.70;24.00;;;;;;5036897;28;20456;-74
2022/10/07 00:39:01;;;;;;;0.90;0.40;;;14.70;24.10;;;;;;5038900;28;20444;-74
2022/10/07 00:41:31;;;;;;;1.77;0.50;;;14.70;24.80;;;;;;5037345;28;20550;-73
2022/10/07 00:43:58;;;;;;;0.90;0.60;;;14.70;28.70;;;;;;5039967;28;20524;-72
2022/10/07 00:46:33;;;;;;;1.53;0.60;;;14.70;31.10;;;;;;5035370;28;20462;-72
2022/10/07 00:49:03;;;;;;;3.87;0.60;;;14.70;29.70;;;;;;5040094;28;20538;-73
2022/10/07 00:51:32;;;;;;;1.40;0.60;;;14.70;27.90;;;;;;5036136;28;20460;-73
2022/10/07 00:53:59;;;;;;;1.60;0.50;;;14.70;23.20;;;;;;5040187;28;20452;-72
2022/10/07 00:56:28;;;;;;;0.60;0.47;;;14.60;23.50;;;;;;5036731;28;20456;-73
2022/10/07 00:58:57;;;;;;;1.00;0.50;;;14.70;27.60;;;;;;5040243;28;20452;-72
2022/10/07 01:01:24;;;;;;;0.90;0.60;;;14.70;30.30;;;;;;5037277;28;20468;-73
2022/10/07 01:03:52;;;;;;;1.50;0.53;;;14.60;29.70;;;;;;5039561;28;20583;-72
2022/10/07 01:06:21;;;;;;;1.40;0.60;;;14.70;26.90;;;;;;5036407;28;20455;-72
2022/10/07 01:08:51;;;;;;;2.90;0.60;;;14.70;30.20;;;;;;5037869;28;20827;-72
2022/10/07 01:11:30;;;;;;;1.63;0.70;;;14.70;27.60;;;;;;5033659;28;20543;-73
2022/10/07 01:14:07;;;;;;;1.00;0.60;;;14.70;19.70;;;;;;5038110;28;20749;-73
2022/10/07 01:16:46;;;;;;;0.93;0.60;;;14.80;12.60;;;;;;5035391;28;20467;-73
2022/10/07 01:19:32;;;;;;;1.50;0.60;;;14.80;3.70;;;;;;5037878;28;20490;-73
2022/10/07 01:22:12;;;;;;;3.03;0.80;;;14.70;1.00;;;;;;5036094;28;20543;-73
2022/10/07 01:24:43;;;;;;;3.73;0.67;;;14.70;1.00;;;;;;5038767;28;20574;-73
2022/10/07 01:27:14;;;;;;;0.90;0.50;;;14.70;2.40;;;;;;5035669;28;20732;-72
2022/10/07 01:29:46;;;;;;;2.00;0.67;;;14.70;1.00;;;;;;5039612;28;20476;-73
2022/10/07 01:32:19;;;;;;;0.80;0.50;;;14.70;5.40;;;;;;5036542;28;20460;-73
2022/10/07 01:34:46;;;;;;;1.00;0.60;;;14.70;2.00;;;;;;5039039;28;20531;-73
2022/10/07 01:37:17;;;;;;;1.00;0.60;;;14.70;1.00;;;;;;5036434;28;20568;-72
2022/10/07 01:39:50;;;;;;;1.13;0.57;;;14.70;1.00;;;;;;5039158;28;20749;-73
2022/10/07 01:42:20;;;;;;;2.30;0.60;;;14.70;1.00;;;;;;5035547;28;20460;-73
2022/10/07 01:44:52;;;;;;;5.17;0.60;;;14.70;1.00;;;;;;5038267;28;20849;-73
2022/10/07 01:47:19;;;;;;;1.43;0.60;;;14.70;1.00;;;;;;5035843;28;20880;-73
2022/10/07 01:49:46;;;;;;;3.00;0.53;;;14.70;1.00;;;;;;5038354;28;20884;-73
2022/10/07 01:52:29;;;;;;;1.17;0.50;;;14.70;1.00;;;;;;5035326;28;20559;-72
2022/10/07 01:55:27;;;;;;;0.97;0.60;;;14.60;1.00;;;;;;5037945;28;20448;-73
2022/10/07 01:58:08;;;;;;;1.20;0.70;;;14.60;1.00;;;;;;5032766;28;20735;-73
2022/10/07 02:00:42;;;;;;;2.23;0.60;;;14.60;1.00;;;;;;5038199;28;20973;-73
2022/10/07 02:03:24;;;;;;;1.77;0.60;;;14.50;1.00;;;;;;5034928;28;20475;-73
2022/10/07 02:05:56;;;;;;;1.00;0.70;;;14.50;1.00;;;;;;5035912;28;20954;-73
2022/10/07 02:08:32;;;;;;;0.90;0.60;;;14.40;20.90;;;;;;5036970;28;20456;-72
2022/10/07 02:11:09;;;;;;;1.80;0.60;;;14.30;37.30;;;;;;5033905;28;20902;-73
2022/10/07 02:13:42;;;;;;;1.43;0.50;;;14.30;35.40;;;;;;5036707;28;20476;-72
2022/10/07 02:16:15;;;;;;;1.00;0.60;;;14.20;39.10;;;;;;5037185;28;20451;-72
2022/10/07 02:18:47;;;;;;;1.20;0.50;;;14.20;40.60;;;;;;5035030;28;20456;-73
2022/10/07 02:21:16;;;;;;;1.57;0.60;;;14.20;32.20;;;;;;5036869;28;20545;-74
2022/10/07 02:23:45;;;;;;;2.30;0.50;;;14.20;34.20;;;;;;5035261;28;20754;-73
2022/10/07 02:26:15;;;;;;;1.73;0.60;;;14.20;42.90;;;;;;5037611;28;20480;-73
2022/10/07 02:28:45;;;;;;;2.03;0.60;;;14.20;37.00;;;;;;5035629;28;20478;-73
2022/10/07 02:31:14;;;;;;;1.00;0.63;;;14.10;29.40;;;;;;5037647;28;20518;-74
2022/10/07 02:33:41;;;;;;;0.80;0.60;;;14.10;35.80;;;;;;5033448;28;20448;-73
2022/10/07 02:36:15;;;;;;;0.80;0.60;;;14.20;34.10;;;;;;5036862;28;20447;-73
2022/10/07 02:38:42;;;;;;;1.20;0.70;;;14.20;24.40;;;;;;5033671;28;20483;-74
2022/10/07 02:41:30;;;;;;;3.77;0.70;;;14.30;20.90;;;;;;5037157;28;20452;-73
2022/10/07 02:44:03;;;;;;;1.17;0.50;;;14.30;21.70;;;;;;5033963;28;20483;-74
2022/10/07 02:46:34;;;;;;;1.27;0.60;;;14.30;20.10;;;;;;5037521;28;20821;-73
2022/10/07 02:49:04;;;;;;;1.03;0.60;;;14.20;27.50;;;;;;5034384;28;20452;-74
2022/10/07 02:51:35;;;;;;;1.10;0.50;;;14.20;32.80;;;;;;5036872;28;20456;-74
2022/10/07 02:54:03;;;;;;;1.37;0.50;;;14.20;36.10;;;;;;5034901;28;20550;-74
2022/10/07 02:56:33;;;;;;;1.97;0.60;;;14.20;43.30;;;;;;5036992;28;20772;-74
2022/10/07 02:59:04;;;;;;;1.20;0.70;;;14.20;40.50;;;;;;5033602;28;20471;-74
2022/10/07 03:01:34;;;;;;;0.90;0.60;;;14.20;33.80;;;;;;5037351;28;20563;-73
2022/10/07 03:04:01;;;;;;;0.80;0.63;;;14.20;37.30;;;;;;5034243;28;20539;-74
2022/10/07 03:06:29;;;;;;;0.80;0.60;;;14.20;40.00;;;;;;5036772;28;20490;-74
2022/10/07 03:08:58;;;;;;;2.20;0.60;;;14.20;37.20;;;;;;5033966;28;20457;-74
2022/10/07 03:11:25;;;;;;;1.47;0.57;;;14.10;40.80;;;;;;5036661;28;20462;-73
2022/10/07 03:13:51;;;;;;;0.80;0.40;;;14.10;36.90;;;;;;5033310;28;20774;-73
2022/10/07 03:16:20;;;;;;;1.17;0.50;;;14.10;40.10;;;;;;5036019;28;20444;-73
2022/10/07 03:18:47;;;;;;;0.80;0.50;;;14.10;39.40;;;;;;5033345;28;20483;-74
2022/10/07 03:21:15;;;;;;;1.27;0.53;;;14.10;42.00;;;;;;5036911;28;20459;-73
2022/10/07 03:23:42;;;;;;;0.60;0.43;;;14.10;46.30;;;;;;5035588;28;20459;-74
2022/10/07 03:26:09;;;;;;;1.67;0.50;;;14.10;48.80;;;;;;5036355;28;20484;-74
2022/10/07 03:28:36;;;;;;;1.20;0.50;;;14.00;47.90;;;;;;5034059;28;20456;-74
2022/10/07 03:31:05;;;;;;;1.63;0.50;;;14.10;46.30;;;;;;5037063;28;20444;-74
2022/10/07 03:33:34;;;;;;;17.13;0.80;;;14.00;46.20;;;;;;5033566;28;20518;-74
2022/10/07 03:36:01;;;;;;;4.53;0.60;;;14.00;48.00;;;;;;5036716;28;20455;-74
2022/10/07 03:38:28;;;;;;;2.93;0.50;;;14.10;48.80;;;;;;5033917;28;20483;-73
2022/10/07 03:40:55;;;;;;;1.27;0.60;;;14.00;44.80;;;;;;5041093;28;20543;-74
2022/10/07 03:43:22;;;;;;;1.63;0.60;;;14.00;46.20;;;;;;5038219;28;20910;-74
2022/10/07 03:45:50;;;;;;;2.20;0.50;;;14.00;49.90;;;;;;5040420;28;20490;-73
2022/10/07 03:48:17;;;;;;;1.67;0.77;;;14.00;50.60;;;;;;5035515;28;20551;-74
2022/10/07 03:50:49;;;;;;;2.20;0.60;;;14.00;42.90;;;;;;5040739;28;20543;-73
2022/10/07 03:53:17;;;;;;;1.23;0.60;;;13.90;48.90;;;;;;5037847;28;20888;-73
2022/10/07 03:55:44;;;;;;;1.30;0.60;;;14.00;50.00;;;;;;5039352;28;20440;-73
2022/10/07 03:58:11;;;;;;;1.17;0.50;;;13.90;51.80;;;;;;5036764;28;20894;-73
2022/10/07 04:00:39;;;;;;;3.07;0.50;;;14.00;48.50;;;;;;5039941;28;20452;-72
2022/10/07 04:03:06;;;;;;;1.00;0.60;;;14.00;53.50;;;;;;5036704;28;20447;-73
2022/10/07 04:05:34;;;;;;;1.07;0.50;;;14.00;57.10;;;;;;5039976;28;20488;-73
2022/10/07 04:08:03;;;;;;;0.83;0.50;;;14.00;57.00;;;;;;5037354;28;20459;-73
2022/10/07 04:10:30;;;;;;;1.27;0.50;;;14.00;56.90;;;;;;5033342;28;20628;-74
2022/10/07 04:12:57;;;;;;;1.37;0.60;;;14.00;57.50;;;;;;5036086;28;20511;-73
2022/10/07 04:15:24;;;;;;;1.60;0.43;;;14.00;58.40;;;;;;5033387;28;20974;-73
2022/10/07 04:17:57;;;;;;;3.33;0.50;;;14.00;62.80;;;;;;5036458;28;20452;-73
2022/10/07 04:20:24;;;;;;;1.53;0.57;;;14.00;62.80;;;;;;5035553;28;20785;-73
2022/10/07 04:22:51;;;;;;;1.53;0.50;;;14.00;61.60;;;;;;5039130;28;20559;-75
2022/10/07 04:28:15;;;;;;;0.67;0.53;;;14.10;48.80;;;;;;5022425;28;20440;-74
2022/10/07 04:30:43;;;;;;;3.60;0.67;;;14.20;48.40;;;;;;5035700;28;20538;-74
2022/10/07 04:33:10;;;;;;;0.80;0.60;;;14.30;47.40;;;;;;5037509;28;20763;-74
2022/10/07 04:35:38;;;;;;;1.40;0.60;;;14.30;49.10;;;;;;5035875;28;20911;-73
2022/10/07 04:38:08;;;;;;;3.10;0.67;;;14.20;47.30;;;;;;5039276;28;20520;-73
2022/10/07 04:40:39;;;;;;;1.20;0.60;;;14.20;45.90;;;;;;5036373;28;20452;-74
2022/10/07 04:43:22;;;;;;;0.90;0.60;;;14.20;51.90;;;;;;5039103;28;20444;-73
2022/10/07 04:45:52;;;;;;;1.40;0.60;;;14.30;54.00;;;;;;5035448;28;20495;-73
2022/10/07 04:48:20;;;;;;;0.83;0.60;;;14.20;53.20;;;;;;5039293;28;20452;-74
2022/10/07 04:50:47;;;;;;;1.17;0.60;;;14.30;55.80;;;;;;5034639;28;20457;-73
2022/10/07 04:53:15;;;;;;;1.13;0.70;;;14.30;57.60;;;;;;5039311;28;20542;-74
2022/10/07 04:55:46;;;;;;;4.73;0.60;;;14.30;57.10;;;;;;5036529;28;20455;-73
2022/10/07 04:58:13;;;;;;;0.87;0.57;;;14.30;56.10;;;;;;5038614;28;20513;-74
2022/10/07 05:00:44;;;;;;;1.57;0.63;;;14.30;59.80;;;;;;5036015;28;20456;-73
2022/10/07 05:03:11;;;;;;;0.80;0.60;;;14.30;61.40;;;;;;5039143;28;20750;-74
2022/10/07 05:05:41;;;;;;;2.00;0.60;;;14.30;72.30;;;;;;5034846;28;20781;-73
2022/10/07 05:08:08;;;;;;;1.63;0.60;;;14.30;75.50;;;;;;5038117;28;20463;-74
2022/10/07 05:10:37;;;;;;;2.30;0.70;;;14.30;70.60;;;;;;5035085;28;20518;-74
2022/10/07 05:13:06;;;;;;;1.93;0.60;;;14.30;65.90;;;;;;5038642;28;20916;-73
2022/10/07 05:15:33;;;;;;;3.93;0.60;;;14.30;76.60;;;;;;5038904;28;20771;-74
2022/10/07 05:18:00;;;;;;;1.67;0.60;;;14.40;79.20;;;;;;5038771;28;20527;-74
2022/10/07 05:20:27;;;;;;;0.97;0.57;;;14.40;79.00;;;;;;5034724;28;20464;-73
2022/10/07 05:22:53;;;;;;;1.20;0.70;;;14.40;75.00;;;;;;5037604;28;20888;-74
2022/10/07 05:25:20;;;;;;;4.53;0.60;;;14.40;76.00;;;;;;5034368;28;20755;-74
2022/10/07 05:27:52;;;;;;;1.57;0.60;;;14.40;62.20;;;;;;5037482;28;20455;-73
2022/10/07 05:30:21;;;;;;;1.83;0.60;;;14.40;64.30;;;;;;5034174;28;20911;-74
2022/10/07 05:32:48;;;;;;;0.93;0.50;;;14.40;68.80;;;;;;5038646;28;20448;-73
2022/10/07 05:35:15;;;;;;;0.80;0.60;;;14.30;80.80;;;;;;5038259;28;20460;-73
2022/10/07 05:37:42;;;;;;;1.30;0.57;;;14.30;79.40;;;;;;5033845;28;20499;-74
2022/10/07 05:40:10;;;;;;;1.10;0.80;;;14.30;87.30;;;;;;5036201;28;20547;-72
2022/10/07 05:42:40;;;;;;;0.90;0.60;;;14.40;85.10;;;;;;5032398;28;20456;-73
2022/10/07 05:45:08;;;;;;;0.90;0.57;;;14.50;79.10;;;;;;5037451;28;20826;-74
2022/10/07 05:47:36;;;;;;;1.80;0.70;;;14.50;75.20;;;;;;5032233;28;20708;-74
2022/10/07 05:50:03;;;;;;;1.73;0.53;;;14.50;63.90;;;;;;5035277;28;20447;-74
2022/10/07 05:52:30;;;;;;;5.00;0.63;;;14.40;62.50;;;;;;5033620;28;20462;-75
2022/10/07 05:54:57;;;;;;;0.90;0.57;;;14.30;74.30;;;;;;5036908;28;20452;-75
2022/10/07 05:57:24;;;;;;;1.77;0.60;;;14.30;86.50;;;;;;5031080;28;20456;-75
2022/10/07 05:59:51;;;;;;;1.60;1.07;;;14.30;95.90;;;;;;5034953;28;20451;-75
2022/10/07 06:02:19;;;;;;;1.80;0.70;;;14.40;93.40;;;;;;5031929;28;20456;-75
2022/10/07 06:04:48;;;;;;;1.30;0.80;;;14.40;90.20;;;;;;5035369;28;20445;-75
2022/10/07 06:07:16;;;;;;;92.20;62.23;;;14.40;90.20;;;;;;5032038;28;20480;-75
2022/10/07 06:15:11;;;;;;;1.63;0.80;;;14.40;96.40;;;;;;5035527;28;20443;-75
2022/10/07 06:17:41;;;;;;;2.00;0.77;;;14.40;96.20;;;;;;5030101;28;21003;-76
2022/10/07 06:20:12;;;;;;;2.03;0.80;;;14.60;93.30;;;;;;5033243;28;20444;-76
2022/10/07 06:22:39;;;;;;;2.50;0.80;;;14.60;68.80;;;;;;5040665;28;20452;-75
2022/10/07 06:25:07;;;;;;;1.80;0.70;;;14.60;64.30;;;;;;5045207;28;20551;-75
2022/10/07 06:27:34;;;;;;;1.20;0.70;;;14.50;67.30;;;;;;5047292;28;20454;-76
2022/10/07 06:30:01;;;;;;;4.67;0.83;;;14.50;71.80;;;;;;5039009;28;20452;-75
2022/10/07 06:32:29;;;;;;;1.07;0.70;;;14.50;75.20;;;;;;5040111;28;20542;-75
2022/10/07 06:34:59;;;;;;;1.50;0.80;;;14.50;82.70;;;;;;5046962;28;20451;-76
2022/10/07 06:37:30;;;;;;;2.27;0.80;;;14.60;80.90;;;;;;5039303;28;20761;-76
2022/10/07 06:39:57;;;;;;;1.17;0.70;;;14.60;81.20;;;;;;5051214;28;20447;-75
2022/10/07 06:42:24;;;;;;;1.97;0.60;;;14.70;80.10;;;;;;5019010;28;20527;-77
2022/10/07 06:44:52;;;;;;;1.00;0.70;;;14.70;71.80;;;;;;5053626;28;20448;-76
2022/10/07 06:47:19;;;;;;;1.43;0.83;;;14.80;72.30;;;;;;5038444;28;20542;-76
2022/10/07 06:49:46;;;;;;;1.63;0.73;;;14.90;68.40;;;;;;5049122;28;21018;-76
2022/10/07 06:52:13;;;;;;;1.77;1.00;;;15.10;54.20;;;;;;5032594;28;20433;-75
2022/10/07 06:54:42;;;;;;;0.73;0.60;;;15.10;51.40;;;;;;5039658;28;20448;-76
2022/10/07 06:57:09;;;;;;;2.00;0.80;;;15.00;55.30;;;;;;5040369;28;21143;-74
2022/10/07 06:59:36;;;;;;;1.97;0.70;;;15.10;59.60;;;;;;5046987;28;20525;-75
2022/10/07 07:02:03;;;;;;;1.67;0.77;;;15.20;57.30;;;;;;5047842;28;20538;-74
2022/10/07 07:04:30;;;;;;;1.73;0.90;;;15.30;53.70;;;;;;5049126;28;20528;-74
2022/10/07 07:06:56;;;;;;;2.03;0.80;;;15.30;49.60;;;;;;5038476;28;21112;-76
2022/10/07 07:09:23;;;;;;;1.63;0.93;;;15.30;47.60;;;;;;5042493;28;20783;-76
2022/10/07 07:11:52;;;;;;;2.13;0.80;;;15.40;48.70;;;;;;5046953;28;20580;-76
2022/10/07 07:14:22;;;;;;;3.33;0.70;;;15.60;38.50;;;;;;5034728;28;20471;-76
2022/10/07 07:16:52;;;;;;;1.27;0.80;;;15.70;28.30;;;;;;5042038;28;20452;-79
2022/10/07 07:19:19;;;;;;;2.63;0.80;;;15.70;22.80;;;;;;5054446;28;20502;-79
2022/10/07 07:21:50;;;;;;;1.47;0.90;;;15.70;23.10;;;;;;5054158;28;20450;-77
2022/10/07 07:24:18;;;;;;;2.40;1.10;;;15.70;23.30;;;;;;5051259;28;20542;-77
2022/10/07 07:26:47;;;;;;;2.73;1.10;;;15.80;26.50;;;;;;5034468;28;20476;-76
2022/10/07 07:29:15;;;;;;;2.77;0.90;;;15.90;26.30;;;;;;5041555;28;20753;-73
2022/10/07 07:31:42;;;;;;;1.20;0.80;;;15.90;24.60;;;;;;5038579;28;20449;-73
2022/10/07 07:34:12;;;;;;;2.03;1.00;;;15.90;21.00;;;;;;5047187;28;21283;-76
2022/10/07 07:36:43;;;;;;;4.30;0.80;;;15.90;16.20;;;;;;5040183;28;20507;-76
2022/10/07 07:39:12;;;;;;;1.87;0.77;;;16.00;14.90;;;;;;5048372;28;21672;-76
2022/10/07 07:41:41;;;;;;;1.57;0.83;;;16.10;14.60;;;;;;5047182;28;20439;-76
2022/10/07 07:44:11;;;;;;;2.60;0.90;;;16.20;14.50;;;;;;5032308;28;20452;-74
2022/10/07 07:46:42;;;;;;;1.00;0.77;;;16.20;5.30;;;;;;5048494;28;20483;-77
2022/10/07 07:49:13;;;;;;;2.27;0.80;;;16.30;2.50;;;;;;5024860;28;20865;-77
2022/10/07 07:51:41;;;;;;;1.60;0.90;;;16.40;7.40;;;;;;5034692;28;20748;-76
2022/10/07 07:54:09;;;;;;;3.53;0.90;;;16.50;1.70;;;;;;5047707;28;21658;-77
2022/10/07 07:56:36;;;;;;;2.20;0.70;;;16.50;1.00;;;;;;5039519;28;20436;-76
2022/10/07 07:59:04;;;;;;;1.63;0.70;;;16.60;1.00;;;;;;5049123;28;20739;-76
2022/10/07 08:01:31;;;;;;;1.50;0.90;;;16.60;1.00;;;;;;5040161;28;20880;-76
2022/10/07 08:03:59;;;;;;;0.90;0.60;;;16.60;1.00;;;;;;5049935;28;20507;-77
2022/10/07 08:06:30;;;;;;;0.93;0.60;;;16.60;1.00;;;;;;5039855;28;20522;-76
2022/10/07 08:08:58;;;;;;;1.13;0.80;;;16.60;1.00;;;;;;5049939;28;20541;-75
2022/10/07 08:11:26;;;;;;;0.93;0.73;;;16.70;1.00;;;;;;5040902;28;20958;-77
2022/10/07 08:13:54;;;;;;;2.17;0.60;;;16.80;1.00;;;;;;5031655;28;20575;-75
2022/10/07 08:16:23;;;;;;;1.20;0.63;;;16.90;1.00;;;;;;5050684;28;20483;-76
2022/10/07 08:18:53;;;;;;;1.10;0.70;;;17.00;1.00;;;;;;5032676;28;20567;-76
2022/10/07 08:21:25;;;;;;;2.70;0.80;;;17.00;1.00;;;;;;5034583;28;20933;-75
2022/10/07 08:23:53;;;;;;;0.90;0.50;;;17.00;1.00;;;;;;5046726;28;20760;-76
2022/10/07 08:26:20;;;;;;;1.67;0.70;;;17.00;1.00;;;;;;5037560;28;20542;-76
2022/10/07 08:28:49;;;;;;;2.10;0.60;;;17.00;1.00;;;;;;5044495;28;20481;-75
2022/10/07 08:31:18;;;;;;;2.70;0.70;;;17.10;1.00;;;;;;5041935;28;20897;-76
2022/10/07 08:33:48;;;;;;;1.00;0.60;;;17.20;1.00;;;;;;5031931;28;20462;-76
2022/10/07 08:36:17;;;;;;;1.60;0.57;;;17.20;1.00;;;;;;5038327;28;20768;-75
2022/10/07 08:38:46;;;;;;;2.07;0.60;;;17.30;1.00;;;;;;5030523;28;20484;-76
2022/10/07 08:41:31;;;;;;;0.73;0.60;;;17.20;1.00;;;;;;5037405;28;20488;-75
2022/10/07 08:44:06;;;;;;;1.57;0.70;;;17.20;1.00;;;;;;5021125;28;20453;-76
2022/10/07 08:46:37;;;;;;;0.80;0.60;;;17.20;1.00;;;;;;5049139;28;20895;-76
2022/10/07 08:49:10;;;;;;;1.10;0.70;;;17.20;1.00;;;;;;5045322;28;21155;-75
2022/10/07 08:51:45;;;;;;;0.90;0.50;;;17.30;1.00;;;;;;5040998;28;20498;-75
2022/10/07 08:54:16;;;;;;;1.10;0.63;;;17.40;1.00;;;;;;5037261;28;20464;-76
2022/10/07 08:56:44;;;;;;;1.00;0.63;;;17.40;1.00;;;;;;5045187;28;20486;-75
2022/10/07 08:59:20;;;;;;;0.80;0.60;;;17.40;1.00;;;;;;5038731;28;20456;-76
2022/10/07 09:01:58;;;;;;;1.10;0.70;;;17.50;1.00;;;;;;5048414;28;20554;-75
2022/10/07 09:04:34;;;;;;;0.80;0.60;;;17.50;1.00;;;;;;5024624;28;20463;-76
2022/10/07 09:07:04;;;;;;;1.07;0.83;;;17.50;1.00;;;;;;5045202;28;20490;-77
2022/10/07 09:09:36;;;;;;;1.20;0.80;;;17.50;1.00;;;;;;5037973;28;20543;-76
2022/10/07 09:12:07;;;;;;;1.00;0.73;;;17.50;1.00;;;;;;5049848;28;20470;-77
2022/10/07 09:14:39;;;;;;;1.07;0.50;;;17.60;1.00;;;;;;5050319;28;20441;-78
2022/10/07 09:17:12;;;;;;;0.90;0.70;;;17.80;1.00;;;;;;5032518;28;20780;-76
2022/10/07 09:19:44;;;;;;;1.27;0.70;;;17.90;1.00;;;;;;5050618;28;20435;-75
2022/10/07 09:22:18;;;;;;;1.00;0.80;;;17.90;1.00;;;;;;5033550;28;20460;-75
2022/10/07 09:24:52;;;;;;;0.80;0.60;;;17.90;1.00;;;;;;5042231;28;20448;-76
2022/10/07 09:27:21;;;;;;;0.90;0.60;;;18.00;1.00;;;;;;5040484;28;20480;-73
2022/10/07 09:29:50;;;;;;;1.47;0.70;;;18.00;1.00;;;;;;5051235;28;20447;-75
2022/10/07 09:32:18;;;;;;;1.20;0.83;;;18.00;1.00;;;;;;5035513;28;20448;-75
2022/10/07 09:34:46;;;;;;;3.87;0.97;;;18.10;1.00;;;;;;5048191;28;20432;-76
2022/10/07 09:37:17;;;;;;;1.83;0.80;;;18.20;1.00;;;;;;5031703;28;20476;-75
2022/10/07 09:39:47;;;;;;;1.77;1.10;;;18.30;1.00;;;;;;5049849;28;20435;-75
2022/10/07 09:42:41;;;;;;;1.90;0.90;;;18.30;1.00;;;;;;5032708;28;20463;-75
2022/10/07 09:45:20;;;;;;;1.10;0.80;;;18.40;1.00;;;;;;5041500;28;20455;-75
2022/10/07 09:47:52;;;;;;;3.00;0.90;;;18.50;1.00;;;;;;5035678;28;20575;-73
2022/10/07 09:50:32;;;;;;;1.30;0.90;;;18.50;1.00;;;;;;5052048;28;20436;-73
2022/10/07 09:53:01;;;;;;;2.63;1.03;;;18.60;1.00;;;;;;5030888;28;20452;-74
2022/10/07 09:55:36;;;;;;;1.43;1.00;;;18.70;1.00;;;;;;5035376;28;20479;-73
2022/10/07 09:58:06;;;;;;;2.73;0.90;;;18.80;1.00;;;;;;5047766;28;20460;-73
2022/10/07 10:00:42;;;;;;;2.83;1.00;;;18.90;1.00;;;;;;5049580;28;20547;-73
2022/10/07 10:03:08;;;;;;;1.50;0.80;;;18.90;1.00;;;;;;5031312;28;20455;-73
2022/10/07 10:05:37;;;;;;;1.40;0.93;;;18.90;1.00;;;;;;5047870;28;20478;-73
2022/10/07 10:08:22;;;;;;;2.50;0.80;;;19.00;1.00;;;;;;5036144;28;20484;-73
2022/10/07 10:10:53;;;;;;;1.20;0.87;;;19.10;1.00;;;;;;5039029;28;20889;-75
2022/10/07 10:13:27;;;;;;;1.50;0.80;;;19.20;1.00;;;;;;5033904;28;20498;-74
2022/10/07 10:15:54;;;;;;;3.60;1.50;;;19.30;1.00;;;;;;5030585;28;20532;-74
2022/10/07 10:18:35;;;;;;;0.90;0.70;;;19.40;1.00;;;;;;5032667;28;21071;-73
2022/10/07 10:21:26;;;;;;;1.43;0.70;;;19.40;1.00;;;;;;5034965;28;20456;-72
2022/10/07 10:23:55;;;;;;;1.20;0.80;;;19.50;1.00;;;;;;5031277;28;20780;-72
2022/10/07 10:26:52;;;;;;;1.40;0.90;;;19.60;99.90;;;;;;5034324;28;20907;-72
2022/10/07 10:29:37;;;;;;;1.20;0.90;;;19.60;99.90;;;;;;5026737;28;20897;-72
2022/10/07 10:32:31;;;;;;;1.00;0.77;;;19.70;99.90;;;;;;5034543;28;21082;-72
2022/10/07 10:35:02;;;;;;;2.10;1.13;;;19.90;99.90;;;;;;5027804;28;20456;-73
2022/10/07 10:37:47;;;;;;;1.53;0.90;;;20.00;99.90;;;;;;5043131;28;20755;-75
2022/10/07 10:40:22;;;;;;;1.37;0.87;;;20.00;62.40;;;;;;5051734;28;20449;-75
2022/10/07 10:42:58;;;;;;;2.40;0.83;;;20.10;91.60;;;;;;5023143;28;20454;-73
2022/10/07 10:45:35;;;;;;;1.57;0.80;;;20.30;86.40;;;;;;5045390;28;20456;-74
2022/10/07 10:48:18;;;;;;;1.20;1.00;;;20.40;1.00;;;;;;5036764;28;20464;-73
2022/10/07 10:50:52;;;;;;;1.10;0.87;;;20.20;99.90;;;;;;5033863;28;20444;-74
2022/10/07 10:53:33;;;;;;;1.20;0.70;;;20.30;1.00;;;;;;5040333;28;20520;-75
2022/10/07 10:56:12;;;;;;;1.70;0.90;;;20.30;1.00;;;;;;5041211;28;20527;-75
2022/10/07 10:58:53;;;;;;;1.17;0.90;;;20.40;1.00;;;;;;5031093;28;20463;-75
2022/10/07 11:01:29;;;;;;;1.97;0.80;;;20.50;1.00;;;;;;5034322;28;20486;-74
2022/10/07 11:04:13;;;;;;;1.77;1.00;;;20.50;1.00;;;;;;5043508;28;20518;-75
2022/10/07 11:06:46;;;;;;;1.90;0.87;;;20.40;1.00;;;;;;5050747;28;20440;-75
2022/10/07 11:09:16;;;;;;;3.40;0.80;;;20.50;1.00;;;;;;5035622;28;20454;-75
2022/10/07 11:11:46;;;;;;;1.10;0.90;;;20.50;1.00;;;;;;5041261;28;20534;-75
2022/10/07 11:14:17;;;;;;;3.27;2.03;;;20.60;1.00;;;;;;5047234;28;20607;-76
2022/10/07 11:16:49;;;;;;;2.23;1.30;;;20.50;1.00;;;;;;5021667;28;20754;-77
2022/10/07 11:19:23;;;;;;;2.60;0.93;;;20.50;1.00;;;;;;5042653;28;20448;-75
2022/10/07 11:21:52;;;;;;;3.67;1.20;;;20.60;1.00;;;;;;5032465;28;21065;-76
2022/10/07 11:24:23;;;;;;;2.07;1.00;;;20.60;1.00;;;;;;5046637;28;20193;-75
2022/10/07 11:26:56;;;;;;;1.30;1.00;;;20.50;1.00;;;;;;5036091;28;20450;-76
2022/10/07 11:29:32;;;;;;;1.57;0.90;;;20.70;1.00;;;;;;5033084;28;21059;-76
2022/10/07 11:32:05;;;;;;;1.40;1.00;;;20.60;1.00;;;;;;5047783;28;20443;-76
2022/10/07 11:34:41;;;;;;;2.03;0.90;;;20.50;99.90;;;;;;5046120;28;20464;-77
2022/10/07 11:37:17;;;;;;;1.17;0.90;;;20.60;99.90;;;;;;5040658;28;21044;-76
2022/10/07 11:39:44;;;;;;;1.10;0.90;;;20.70;1.00;;;;;;5038887;28;20509;-76
2022/10/07 11:42:18;;;;;;;1.40;1.00;;;20.80;1.00;;;;;;5049106;28;20463;-77
2022/10/07 11:44:54;;;;;;;2.60;0.80;;;21.00;99.90;;;;;;5026051;28;20564;-77
2022/10/07 11:47:27;;;;;;;1.40;0.80;;;21.10;1.00;;;;;;5027343;28;21074;-77
2022/10/07 11:50:01;;;;;;;2.40;0.97;;;21.00;99.90;;;;;;5029556;28;21033;-77
2022/10/07 11:52:33;;;;;;;1.73;1.53;;;21.00;99.90;;;;;;5030950;28;20521;-77
2022/10/07 11:55:05;;;;;;;1.37;1.03;;;20.90;99.90;;;;;;5027541;28;20448;-77
2022/10/07 11:57:35;;;;;;;3.70;1.10;;;20.80;1.00;;;;;;5040292;28;20802;-77
2022/10/07 12:00:08;;;;;;;2.83;1.30;;;20.80;1.00;;;;;;5022683;28;20463;-77
2022/10/07 12:02:45;;;;;;;1.53;0.80;;;20.70;1.00;;;;;;5035505;28;20440;-76
2022/10/07 12:05:56;;;;;;;1.77;0.90;;;20.70;36.20;;;;;;5035442;28;20531;-76
2022/10/07 12:08:37;;;;;;;1.07;0.90;;;20.80;8.90;;;;;;5029048;28;20483;-77
2022/10/07 12:11:44;;;;;;;3.53;1.07;;;20.80;1.00;;;;;;5045480;28;20444;-78
2022/10/07 12:14:40;;;;;;;1.60;1.10;;;20.70;32.20;;;;;;5023138;28;20486;-77
2022/10/07 12:17:27;;;;;;;1.57;0.90;;;20.60;1.00;;;;;;5017595;28;20496;-76
2022/10/07 12:20:33;;;;;;;4.80;0.90;;;20.60;89.00;;;;;;5052015;28;20459;-75
2022/10/07 12:23:37;;;;;;;1.10;0.80;;;20.70;48.20;;;;;;5020210;28;20440;-78
2022/10/07 12:26:25;;;;;;;1.80;1.00;;;20.60;99.90;;;;;;5021453;28;20828;-77
2022/10/07 12:28:52;;;;;;;2.50;1.07;;;20.50;99.90;;;;;;5044757;28;20550;-75
2022/10/07 12:31:49;;;;;;;1.67;1.20;;;20.50;99.90;;;;;;5052661;28;20522;-76
2022/10/07 12:34:27;;;;;;;1.27;1.00;;;20.40;99.90;;;;;;5043697;28;20453;-76
2022/10/07 12:37:31;;;;;;;2.40;0.90;;;20.30;99.90;;;;;;5040185;28;20452;-75
2022/10/07 12:40:00;;;;;;;1.80;1.70;;;20.40;99.90;;;;;;5011955;28;20522;-75
2022/10/07 12:42:28;;;;;;;4.53;1.10;;;20.60;99.90;;;;;;5015708;28;20448;-75
2022/10/07 12:44:58;;;;;;;1.60;1.00;;;20.60;99.90;;;;;;5036179;28;20456;-74
2022/10/07 12:47:28;;;;;;;1.10;0.80;;;20.60;99.90;;;;;;5035319;28;20981;-75
2022/10/07 12:50:00;;;;;;;1.40;1.10;;;20.50;99.90;;;;;;5036178;28;20455;-75
2022/10/07 12:52:39;;;;;;;1.40;1.10;;;20.50;99.90;;;;;;5033742;28;20479;-73
2022/10/07 12:55:10;;;;;;;2.03;1.00;;;20.50;99.90;;;;;;5035967;28;20452;-75
2022/10/07 12:57:40;;;;;;;1.40;1.10;;;20.30;99.90;;;;;;5033991;28;20463;-75
2022/10/07 13:00:14;;;;;;;1.43;1.10;;;20.30;99.90;;;;;;5037833;28;20547;-74
2022/10/07 13:03:17;;;;;;;2.97;1.00;;;20.30;99.90;;;;;;5034050;28;20452;-75
2022/10/07 13:06:20;;;;;;;1.30;0.87;;;20.20;99.90;;;;;;5036294;28;20455;-75
2022/10/07 13:09:14;;;;;;;1.10;0.87;;;20.20;1.00;;;;;;5031190;28;20566;-75
2022/10/07 13:12:10;;;;;;;2.03;1.00;;;20.20;1.00;;;;;;5035870;28;20959;-76
2022/10/07 13:14:47;;;;;;;1.30;1.10;;;20.20;1.00;;;;;;5035481;28;20432;-76
2022/10/07 13:17:38;;;;;;;2.23;1.10;;;20.10;1.00;;;;;;5031708;28;20903;-76
2022/10/07 13:20:24;;;;;;;1.70;1.30;;;20.00;1.00;;;;;;5036559;28;20462;-76
2022/10/07 13:22:51;;;;;;;1.40;0.93;;;19.90;1.00;;;;;;5034136;28;20567;-75
2022/10/07 13:25:20;;;;;;;2.57;1.03;;;19.90;1.00;;;;;;5037808;28;20631;-76